Time;durP1;ratioP1;P1;durP2;ratioP2;P2;SDS_P1;SDS_P2;PMS_P1;PMS_P2;Temp;Humidity;BMP_temperature;BMP_pressure;BME280_temperature;BME280_humidity;BME280_pressure;Samples;Min_cycle;Max_cycle;Signal;HPM_P1;HPM_P2
2023/06/27 00:01:47;;;;;;;;;3.33;1.00;;;;;18.33;72.85;101845.44;5056673;28;45469;-68
2023/06/27 00:04:13;;;;;;;;;6.00;3.00;;;;;18.32;72.54;101843.72;5051356;28;45581;-67
2023/06/27 00:06:41;;;;;;;;;3.00;2.33;;;;;18.24;73.49;101831.56;5046374;28;45429;-67
2023/06/27 00:09:10;;;;;;;;;3.33;2.33;;;;;18.31;72.54;101839.31;5054900;28;46454;-68
2023/06/27 00:11:39;;;;;;;;;6.00;3.00;;;;;18.31;72.82;101840.19;5056899;28;45478;-67
2023/06/27 00:14:07;;;;;;;;;2.33;1.00;;;;;18.31;73.32;101839.31;5057609;28;45296;-67
2023/06/27 00:16:32;;;;;;;;;5.33;2.67;;;;;18.29;73.83;101846.53;5060532;28;45443;-67
2023/06/27 00:19:02;;;;;;;;;2.00;2.00;;;;;18.29;73.26;101850.03;5060087;28;45985;-67
2023/06/27 00:21:29;;;;;;;;;3.00;2.00;;;;;18.29;73.88;101850.03;5060259;28;45423;-67
2023/06/27 00:23:56;;;;;;;;;3.00;2.00;;;;;18.07;74.01;101813.53;5057989;28;45490;-68
2023/06/27 00:26:22;;;;;;;;;3.00;3.00;;;;;18.25;73.49;101845.75;5045734;28;45306;-67
2023/06/27 00:28:47;;;;;;;;;4.67;3.00;;;;;18.23;73.59;101861.81;5060011;28;45301;-68
2023/06/27 00:31:12;;;;;;;;;2.00;2.00;;;;;18.18;74.68;101854.91;5075840;28;45224;-67
2023/06/27 00:33:38;;;;;;;;;4.33;1.67;;;;;18.15;74.67;101858.53;5059757;28;45386;-67
2023/06/27 00:36:05;;;;;;;;;3.67;2.00;;;;;18.14;74.74;101853.25;5060113;28;45451;-67
2023/06/27 00:38:31;;;;;;;;;1.00;1.00;;;;;17.88;74.74;101815.97;5059842;28;47067;-68
2023/06/27 00:40:57;;;;;;;;;4.00;3.00;;;;;18.09;74.49;101866.78;5055800;28;45440;-67
2023/06/27 00:43:22;;;;;;;;;3.67;2.00;;;;;18.02;75.12;101850.16;5040004;28;45344;-67
2023/06/27 00:45:49;;;;;;;;;3.67;2.00;;;;;18.00;74.48;101843.13;5039876;28;45510;-73
2023/06/27 00:48:15;;;;;;;;;2.00;2.00;;;;;18.03;75.86;101859.88;5039528;28;45701;-73
2023/06/27 00:50:43;;;;;;;;;6.00;1.33;;;;;17.99;75.01;101854.72;5039676;28;45338;-71
2023/06/27 00:53:09;;;;;;;;;4.00;3.00;;;;;17.96;76.91;101857.47;5039853;28;45196;-74
2023/06/27 00:55:37;;;;;;;;;2.00;2.00;;;;;17.94;76.55;101865.53;5040077;28;45448;-72
2023/06/27 00:58:03;;;;;;;;;4.00;0.00;;;;;17.97;75.59;101870.75;5039647;28;45247;-74
2023/06/27 01:00:30;;;;;;;;;5.00;2.00;;;;;17.97;76.45;101873.41;5039074;28;45361;-73
2023/06/27 01:02:55;;;;;;;;;2.00;1.67;;;;;17.90;76.80;101862.09;5055783;28;45473;-73
2023/06/27 01:05:21;;;;;;;;;4.00;2.67;;;;;17.79;76.92;101847.38;5059782;28;45315;-73
2023/06/27 01:07:56;;;;;;;;;9.00;5.33;;;;;17.94;76.77;101878.00;5059493;28;46365;-75
2023/06/27 01:10:39;;;;;;;;;4.00;1.67;;;;;17.95;76.45;101869.06;5059635;28;45269;-74
2023/06/27 01:13:10;;;;;;;;;5.67;2.00;;;;;17.83;77.06;101851.69;5059625;28;45229;-74
2023/06/27 01:15:38;;;;;;;;;3.33;1.67;;;;;17.89;76.70;101867.44;5053726;28;45550;-74
2023/06/27 01:18:05;;;;;;;;;5.00;2.00;;;;;17.80;76.74;101850.00;5038934;28;45893;-76
2023/06/27 01:20:32;;;;;;;;;2.33;2.33;;;;;17.83;78.44;101860.53;5039325;28;45279;-75
2023/06/27 01:23:07;;;;;;;;;4.00;2.67;;;;;17.85;77.51;101864.03;5039652;28;45234;-73
2023/06/27 01:25:33;;;;;;;;;3.00;3.00;;;;;17.82;78.64;101858.81;5038734;28;45404;-73
2023/06/27 01:27:58;;;;;;;;;3.00;0.00;;;;;17.77;78.48;101852.78;5039162;28;46661;-74
2023/06/27 01:30:24;;;;;;;;;4.33;2.33;;;;;17.75;79.62;101843.97;5038973;28;45470;-73
2023/06/27 01:32:56;;;;;;;;;3.00;3.00;;;;;17.82;78.52;101865.91;5039267;28;45439;-74
2023/06/27 01:35:37;;;;;;;;;4.00;2.00;;;;;17.80;78.49;101860.66;5039402;28;45365;-74
2023/06/27 01:38:10;;;;;;;;;2.67;2.00;;;;;17.82;78.78;101860.59;5039119;28;46290;-74
2023/06/27 01:40:39;;;;;;;;;2.67;2.00;;;;;17.81;79.87;101865.06;5038767;28;45304;-73
2023/06/27 01:43:09;;;;;;;;;4.00;2.00;;;;;17.76;79.51;101856.34;5039089;28;45285;-74
2023/06/27 01:45:36;;;;;;;;;2.00;2.00;;;;;17.80;79.19;101863.31;5058792;28;45206;-73
2023/06/27 01:48:02;;;;;;;;;2.67;1.33;;;;;17.77;79.91;101862.56;5058592;28;45527;-73
2023/06/27 01:50:27;;;;;;;;;3.67;2.00;;;;;17.73;80.73;101857.34;5058893;28;45442;-74
2023/06/27 01:52:53;;;;;;;;;3.33;2.00;;;;;17.77;80.39;101860.75;5058969;28;45482;-74
2023/06/27 01:55:18;;;;;;;;;3.67;3.00;;;;;17.82;80.44;101869.47;5058990;28;45435;-74
2023/06/27 01:57:44;;;;;;;;;3.33;2.00;;;;;17.78;80.49;101867.84;5058735;28;46167;-73
2023/06/27 02:00:10;;;;;;;;;3.67;3.67;;;;;17.83;80.19;101862.34;5057789;28;45383;-74
2023/06/27 02:02:36;;;;;;;;;7.00;2.33;;;;;17.79;80.10;101863.38;5058822;28;45261;-74
2023/06/27 02:05:01;;;;;;;;;3.00;3.00;;;;;17.82;80.70;101866.81;5058835;28;45476;-74
2023/06/27 02:07:27;;;;;;;;;4.67;3.00;;;;;17.75;80.99;101847.50;5058516;28;45239;-73
2023/06/27 02:09:52;;;;;;;;;3.33;3.33;;;;;17.77;81.16;101846.59;5044782;28;45435;-73
2023/06/27 02:12:17;;;;;;;;;1.67;1.67;;;;;17.73;81.65;101848.47;5038417;28;45229;-73
2023/06/27 02:14:43;;;;;;;;;5.33;2.00;;;;;17.78;80.34;101856.31;5038953;28;45329;-73
2023/06/27 02:17:08;;;;;;;;;3.00;3.00;;;;;17.75;81.45;101844.84;5038175;28;45537;-72
2023/06/27 02:19:33;;;;;;;;;2.00;2.00;;;;;17.70;81.52;101837.94;5038287;28;45311;-73
2023/06/27 02:21:59;;;;;;;;;10.50;2.00;;;;;17.69;82.49;101841.53;5038538;28;45326;-72
2023/06/27 02:24:24;;;;;;;;;3.33;3.33;;;;;17.63;81.83;101834.63;5049766;28;45293;-75
2023/06/27 02:26:49;;;;;;;;;1.67;1.67;;;;;17.69;82.39;101841.53;5042870;28;45530;-74
2023/06/27 02:29:15;;;;;;;;;8.00;2.67;;;;;17.68;82.29;101858.44;5038195;28;45254;-74
2023/06/27 02:31:40;;;;;;;;;3.67;3.00;;;;;17.60;82.01;101836.50;5038399;28;45261;-74
2023/06/27 02:34:05;;;;;;;;;10.33;4.00;;;;;17.56;83.32;101838.44;5038200;28;45393;-74
2023/06/27 02:36:31;;;;;;;;;7.00;6.00;;;;;17.55;82.81;101840.19;5036823;28;46311;-75
2023/06/27 02:38:59;;;;;;;;;4.00;3.00;;;;;17.56;82.84;101841.09;5056154;28;45259;-72
2023/06/27 02:41:24;;;;;;;;;4.00;3.00;;;;;17.55;83.56;101845.53;5044210;28;45459;-73
2023/06/27 02:43:50;;;;;;;;;7.67;4.00;;;;;17.35;83.41;101805.41;5038279;28;45458;-72
2023/06/27 02:46:16;;;;;;;;;2.67;2.67;;;;;17.56;83.74;101833.97;5036395;28;48197;-72
2023/06/27 02:48:41;;;;;;;;;4.67;3.00;;;;;17.53;83.64;101825.22;5037630;28;45546;-72
2023/06/27 02:51:07;;;;;;;;;4.00;4.00;;;;;17.52;84.41;101837.66;5038066;28;45348;-74
2023/06/27 02:53:32;;;;;;;;;4.33;3.00;;;;;17.48;84.92;101824.50;5038154;28;45163;-74
2023/06/27 02:56:02;;;;;;;;;2.33;2.00;;;;;17.51;84.03;101832.38;5055353;28;46881;-71
2023/06/27 02:58:27;;;;;;;;;2.00;2.00;;;;;17.34;84.45;101796.56;5057808;28;45437;-72
2023/06/27 03:00:53;;;;;;;;;4.67;2.00;;;;;17.43;84.49;101815.78;5057653;28;45380;-72
2023/06/27 03:03:19;;;;;;;;;9.00;2.33;;;;;17.38;84.67;101819.50;5045922;28;45350;-71
2023/06/27 03:05:44;;;;;;;;;7.67;3.00;;;;;17.25;85.06;101796.84;5037434;28;46101;-72
2023/06/27 03:08:10;;;;;;;;;5.00;2.67;;;;;17.43;84.06;101824.66;5037437;28;45431;-72
2023/06/27 03:10:35;;;;;;;;;5.67;2.00;;;;;17.43;84.83;101832.66;5038925;28;45726;-72
2023/06/27 03:13:00;;;;;;;;;3.33;1.67;;;;;17.45;85.18;101829.94;5057191;28;45476;-72
2023/06/27 03:15:26;;;;;;;;;4.67;2.33;;;;;17.45;85.10;101832.59;5037470;28;46341;-72
2023/06/27 03:17:51;;;;;;;;;4.67;3.00;;;;;17.40;85.47;101816.78;5037459;28;45345;-72
2023/06/27 03:20:16;;;;;;;;;6.67;4.00;;;;;17.39;85.82;101823.03;5037315;28;45423;-72
2023/06/27 03:22:43;;;;;;;;;2.00;2.00;;;;;17.39;85.16;101818.56;5037955;28;45341;-72
2023/06/27 03:25:10;;;;;;;;;3.67;2.00;;;;;17.36;85.43;101821.31;5037014;28;45492;-70
2023/06/27 03:27:36;;;;;;;;;3.33;2.00;;;;;17.40;85.63;101828.28;5037242;28;45272;-72
2023/06/27 03:30:02;;;;;;;;;4.00;3.00;;;;;17.42;85.93;101827.38;5037610;28;45201;-73
2023/06/27 03:32:27;;;;;;;;;3.00;3.00;;;;;17.37;85.93;101825.72;5037451;28;45387;-73
2023/06/27 03:34:53;;;;;;;;;5.33;2.00;;;;;17.33;86.21;101823.22;5037078;28;45341;-73
2023/06/27 03:37:19;;;;;;;;;1.67;1.67;;;;;17.40;86.34;101830.94;5036965;28;45414;-72
2023/06/27 03:39:45;;;;;;;;;5.33;2.33;;;;;17.36;85.46;101818.66;5037435;28;45396;-72
2023/06/27 03:42:11;;;;;;;;;3.33;3.00;;;;;17.46;85.84;101837.00;5039539;28;45414;-72
2023/06/27 03:44:36;;;;;;;;;4.67;3.00;;;;;17.45;85.99;101843.25;5057061;28;46080;-72
2023/06/27 03:47:02;;;;;;;;;4.00;2.00;;;;;17.46;86.38;101847.66;5056573;28;45309;-73
2023/06/27 03:49:27;;;;;;;;;3.00;3.00;;;;;17.46;85.41;101845.00;5060770;28;45267;-72
2023/06/27 03:51:53;;;;;;;;;4.67;3.67;;;;;17.42;85.90;101838.03;5061125;28;45518;-72
2023/06/27 03:54:18;;;;;;;;;3.00;3.00;;;;;17.46;84.68;101837.88;5048723;28;45577;-71
2023/06/27 03:56:43;;;;;;;;;2.00;2.00;;;;;17.45;85.97;101836.13;5040570;28;45313;-71
2023/06/27 03:59:09;;;;;;;;;7.00;3.33;;;;;17.23;85.88;101810.22;5040739;28;45221;-75
2023/06/27 04:01:34;;;;;;;;;6.00;3.00;;;;;17.43;85.92;101851.28;5040571;28;45391;-73
2023/06/27 04:04:00;;;;;;;;;10.00;6.00;;;;;17.42;86.15;101844.22;5040290;28;46274;-74
2023/06/27 04:06:25;;;;;;;;;4.00;4.00;;;;;17.44;86.34;101838.81;5038972;28;45317;-73
2023/06/27 04:08:51;;;;;;;;;7.00;4.00;;;;;17.44;85.99;101841.50;5040746;28;45420;-74
2023/06/27 04:11:16;;;;;;;;;4.00;4.00;;;;;17.50;85.59;101846.59;5040575;28;45237;-74
2023/06/27 04:13:41;;;;;;;;;4.67;4.67;;;;;17.48;85.53;101841.31;5041205;28;46163;-73
2023/06/27 04:16:07;;;;;;;;;11.67;10.00;;;;;17.54;85.82;101856.22;5040642;28;45282;-75
2023/06/27 04:18:32;;;;;;;;;7.00;5.67;;;;;17.60;85.92;101856.03;5041380;28;45409;-70
2023/06/27 04:20:58;;;;;;;;;18.00;14.33;;;;;17.65;85.79;101854.06;5040267;28;45461;-76
2023/06/27 04:23:23;;;;;;;;;5.00;5.00;;;;;17.70;85.16;101852.13;5040226;28;45579;-78
2023/06/27 04:26:07;;;;;;;;;9.33;4.00;;;;;17.76;84.41;101856.34;5040032;28;45360;-79
2023/06/27 04:28:33;;;;;;;;;5.00;5.00;;;;;17.52;84.86;101808.34;5040255;28;45427;-75
2023/06/27 04:31:00;;;;;;;;;12.33;4.67;;;;;17.83;84.23;101855.22;5040187;28;45500;-73
2023/06/27 04:33:27;;;;;;;;;12.00;5.67;;;;;17.86;83.96;101860.47;5056975;28;47546;-73
2023/06/27 04:35:54;;;;;;;;;6.33;4.00;;;;;17.88;83.95;101855.06;5059777;28;45345;-73
2023/06/27 04:38:20;;;;;;;;;5.67;4.67;;;;;17.94;84.20;101862.00;5060060;28;45388;-72
2023/06/27 04:40:45;;;;;;;;;5.33;3.67;;;;;17.91;83.37;101853.19;5050832;28;45205;-71
2023/06/27 04:43:11;;;;;;;;;5.33;3.00;;;;;17.97;83.73;101857.44;5055889;28;46671;-72
2023/06/27 04:45:36;;;;;;;;;10.67;3.33;;;;;18.02;82.59;101850.16;5059735;28;45217;-72
2023/06/27 04:48:02;;;;;;;;;5.67;5.33;;;;;18.08;83.54;101838.38;5060106;28;45340;-72
2023/06/27 04:50:27;;;;;;;;;8.00;4.67;;;;;18.18;83.01;101844.22;5061154;27;45517;-73
2023/06/27 04:52:52;;;;;;;;;15.67;14.33;;;;;18.19;82.49;101835.31;5057714;28;46281;-74
2023/06/27 04:55:18;;;;;;;;;10.33;9.67;;;;;18.27;82.52;101833.25;5059845;28;45351;-75
2023/06/27 04:57:43;;;;;;;;;10.00;4.67;;;;;18.36;82.22;101835.56;5049661;28;45423;-71
2023/06/27 05:00:10;;;;;;;;;10.67;4.00;;;;;18.46;81.51;101846.75;5058615;28;45300;-69
2023/06/27 05:02:36;;;;;;;;;7.67;4.33;;;;;18.55;80.75;101838.38;5052195;28;46379;-70
2023/06/27 05:05:02;;;;;;;;;6.00;4.33;;;;;18.60;80.52;101828.41;5039876;28;45375;-73
2023/06/27 05:07:27;;;;;;;;;3.33;3.00;;;;;18.60;80.55;101827.53;5057902;28;45320;-73
2023/06/27 05:09:53;;;;;;;;;7.33;6.00;;;;;18.67;80.37;101830.84;5053246;28;45519;-72
2023/06/27 05:12:18;;;;;;;;;9.67;8.00;;;;;18.68;79.95;101840.59;5059318;28;46508;-73
2023/06/27 05:14:43;;;;;;;;;6.33;5.00;;;;;18.74;80.37;101849.19;5059213;28;45385;-73
2023/06/27 05:17:09;;;;;;;;;9.00;7.33;;;;;18.60;79.86;101827.53;5046299;28;45238;-72
2023/06/27 05:19:34;;;;;;;;;10.33;6.67;;;;;18.74;80.26;101845.66;5057176;28;45594;-73
2023/06/27 05:21:59;;;;;;;;;7.67;6.67;;;;;18.72;79.47;101832.41;5059014;28;45473;-72
2023/06/27 05:24:24;;;;;;;;;6.33;5.33;;;;;18.88;79.73;101845.13;5059354;28;45311;-72
2023/06/27 05:26:50;;;;;;;;;15.67;8.00;;;;;18.94;79.19;101843.09;5057330;28;45407;-72
2023/06/27 05:29:15;;;;;;;;;9.67;5.33;;;;;19.02;78.92;101840.13;5059329;28;45272;-75
2023/06/27 05:31:41;;;;;;;;;7.00;6.00;;;;;19.15;78.25;101851.16;5055747;28;46237;-67
2023/06/27 05:34:07;;;;;;;;;17.67;13.33;;;;;19.19;78.25;101851.91;5049935;28;45309;-74
2023/06/27 05:36:33;;;;;;;;;8.00;5.00;;;;;19.26;77.98;101861.41;5039008;28;45388;-71
2023/06/27 05:38:59;;;;;;;;;4.00;3.67;;;;;19.23;77.88;101848.19;5054750;28;45598;-70
2023/06/27 05:41:24;;;;;;;;;10.00;5.00;;;;;19.34;77.08;101853.94;5058809;28;47710;-72
2023/06/27 05:43:49;;;;;;;;;7.00;5.00;;;;;19.44;76.65;101863.28;5058966;28;45313;-71
2023/06/27 05:46:15;;;;;;;;;5.67;4.00;;;;;19.45;76.70;101848.16;5058269;28;45455;-71
2023/06/27 05:48:40;;;;;;;;;11.00;8.00;;;;;19.50;76.82;101843.47;5037046;28;45324;-76
2023/06/27 05:51:06;;;;;;;;;12.33;6.00;;;;;19.57;76.28;101852.97;5037224;28;45928;-73
2023/06/27 05:53:32;;;;;;;;;12.33;8.00;;;;;19.58;76.25;101843.16;5037098;28;45810;-78
2023/06/27 05:55:57;;;;;;;;;8.67;5.33;;;;;19.61;74.78;101851.91;5037872;28;45624;-67
2023/06/27 05:58:22;;;;;;;;;10.33;5.00;;;;;19.63;74.59;101843.81;5041474;28;45425;-68
2023/06/27 06:00:48;;;;;;;;;5.67;3.33;;;;;19.73;74.61;101849.63;5057335;28;46376;-66
2023/06/27 06:03:13;;;;;;;;;5.33;5.00;;;;;19.81;74.04;101845.72;5057648;28;45337;-73
2023/06/27 06:05:39;;;;;;;;;12.00;8.00;;;;;19.93;73.60;101849.66;5057499;28;45315;-72
2023/06/27 06:08:04;;;;;;;;;8.67;6.00;;;;;19.99;72.91;101844.03;5057700;28;45285;-68
2023/06/27 06:10:29;;;;;;;;;8.33;5.00;;;;;20.11;72.75;101858.66;5057346;28;45409;-71
2023/06/27 06:12:54;;;;;;;;;7.00;4.33;;;;;20.17;72.12;101866.41;5057575;28;45404;-75
2023/06/27 06:15:20;;;;;;;;;13.33;9.67;;;;;20.18;71.84;101848.53;5057491;28;45330;-71
2023/06/27 06:17:45;;;;;;;;;7.33;5.67;;;;;20.25;71.73;101860.69;5057412;28;45705;-71
2023/06/27 06:20:11;;;;;;;;;6.67;6.33;;;;;20.34;71.32;101870.09;5057019;28;46103;-71
2023/06/27 06:22:37;;;;;;;;;10.67;7.33;;;;;20.33;71.36;101871.03;5056906;28;45412;-69
2023/06/27 06:25:03;;;;;;;;;12.33;6.33;;;;;20.44;71.39;101873.25;5049915;28;45435;-70
2023/06/27 06:27:29;;;;;;;;;7.33;4.67;;;;;20.43;70.93;101861.66;5036939;28;45446;-71
2023/06/27 06:29:54;;;;;;;;;7.67;4.67;;;;;20.42;70.73;101853.69;5036550;28;46436;-72
2023/06/27 06:32:20;;;;;;;;;6.67;6.00;;;;;20.35;70.93;101834.41;5037085;28;45438;-78
2023/06/27 06:34:45;;;;;;;;;8.67;6.00;;;;;20.64;70.70;101861.59;5036731;28;45390;-78
2023/06/27 06:37:10;;;;;;;;;8.67;6.67;;;;;20.66;70.77;101857.03;5035808;28;45400;-77
2023/06/27 06:39:36;;;;;;;;;12.67;7.33;;;;;20.77;70.29;101860.09;5035921;28;45576;-77
2023/06/27 06:42:01;;;;;;;;;6.00;5.67;;;;;20.78;69.83;101858.28;5047286;28;45427;-77
2023/06/27 06:44:26;;;;;;;;;9.00;6.67;;;;;20.79;70.68;101860.88;5056796;28;45502;-75
2023/06/27 06:46:52;;;;;;;;;6.67;4.33;;;;;20.84;70.00;101864.22;5037724;28;45491;-76
2023/06/27 06:49:17;;;;;;;;;9.00;6.67;;;;;20.96;69.71;101875.28;5036651;28;45379;-75
2023/06/27 06:51:42;;;;;;;;;10.00;7.00;;;;;21.01;69.32;101882.16;5051281;28;45317;-76
2023/06/27 06:54:08;;;;;;;;;9.00;7.00;;;;;21.06;69.16;101884.59;5056670;28;45535;-77
2023/06/27 06:56:33;;;;;;;;;9.00;8.33;;;;;21.03;68.69;101876.72;5056618;28;45533;-77
2023/06/27 06:58:59;;;;;;;;;12.00;8.33;;;;;21.11;68.85;101873.66;5056272;28;46321;-77
2023/06/27 07:01:24;;;;;;;;;9.00;7.33;;;;;21.20;68.38;101878.56;5056590;28;45294;-74
2023/06/27 07:03:50;;;;;;;;;8.33;6.00;;;;;21.20;67.65;101857.13;5056771;28;45790;-77
2023/06/27 07:06:15;;;;;;;;;6.67;5.67;;;;;21.31;66.83;101870.84;5056636;28;45625;-76
2023/06/27 07:08:40;;;;;;;;;7.67;5.67;;;;;21.43;66.43;101881.91;5057151;28;45371;-76
2023/06/27 07:11:05;;;;;;;;;7.67;6.00;;;;;21.55;67.09;101892.91;5057563;28;45360;-76
2023/06/27 07:13:31;;;;;;;;;10.00;8.33;;;;;21.77;65.92;101881.09;5049912;28;45494;-77
2023/06/27 07:15:56;;;;;;;;;8.00;6.00;;;;;22.18;63.16;101877.16;5045887;28;45426;-78
2023/06/27 07:18:21;;;;;;;;;9.00;6.00;;;;;22.33;62.98;101860.25;5057536;28;45369;-76
2023/06/27 07:20:47;;;;;;;;;7.33;6.00;;;;;22.68;61.59;101878.06;5052880;28;45424;-77
2023/06/27 07:23:12;;;;;;;;;7.67;4.67;;;;;22.69;60.29;101851.13;5051657;28;45475;-77
2023/06/27 07:25:38;;;;;;;;;8.33;5.33;;;;;22.76;59.42;101863.25;5053601;28;45681;-78
2023/06/27 07:28:05;;;;;;;;;7.00;6.00;;;;;22.72;59.85;101858.13;5037024;28;46625;-78
2023/06/27 07:30:30;;;;;;;;;11.00;8.00;;;;;22.75;59.89;101866.00;5037198;28;45408;-79
2023/06/27 07:32:55;;;;;;;;;10.33;10.00;;;;;22.76;59.65;101857.00;5037486;28;45347;-80
2023/06/27 07:35:21;;;;;;;;;7.00;5.67;;;;;22.85;59.05;101869.06;5037444;28;45237;-78
2023/06/27 07:37:46;;;;;;;;;6.33;6.33;;;;;23.04;58.93;101868.88;5037716;28;45444;-78
2023/06/27 07:40:11;;;;;;;;;5.67;5.00;;;;;22.92;58.19;101849.81;5037155;28;45431;-77
2023/06/27 07:42:37;;;;;;;;;9.67;6.67;;;;;22.96;58.97;101872.00;5037679;28;45293;-79
2023/06/27 07:45:02;;;;;;;;;6.67;6.67;;;;;22.92;59.47;101873.13;5047028;28;45582;-76
2023/06/27 07:47:28;;;;;;;;;5.67;5.67;;;;;22.79;60.28;101854.16;5052248;28;46184;-79
2023/06/27 07:49:54;;;;;;;;;8.00;7.00;;;;;22.76;60.72;101859.69;5050025;28;45597;-79
2023/06/27 07:52:19;;;;;;;;;7.67;6.00;;;;;22.68;60.47;101862.78;5040392;28;45550;-79
2023/06/27 07:54:45;;;;;;;;;10.00;7.00;;;;;22.67;60.11;101866.47;5056019;28;45573;-80
2023/06/27 07:57:10;;;;;;;;;9.33;7.33;;;;;22.59;59.56;101872.22;5056406;28;46301;-78
2023/06/27 07:59:35;;;;;;;;;8.00;6.33;;;;;22.42;58.41;101857.09;5055150;28;45266;-76
2023/06/27 08:02:01;;;;;;;;;7.33;6.33;;;;;22.41;58.84;101858.03;5048566;28;45332;-79
2023/06/27 08:04:26;;;;;;;;;5.67;5.67;;;;;22.48;59.22;101869.31;5056744;28;45386;-79
2023/06/27 08:06:53;;;;;;;;;7.33;5.00;;;;;22.30;59.58;101833.56;5056703;28;46421;-78
2023/06/27 08:09:20;;;;;;;;;9.00;5.33;;;;;22.41;59.56;101841.06;5040240;28;45465;-80
2023/06/27 08:11:45;;;;;;;;;7.33;7.00;;;;;22.33;59.45;101830.72;5045250;28;45383;-78
2023/06/27 08:14:10;;;;;;;;;8.33;6.67;;;;;22.57;58.49;101860.72;5055670;28;45466;-80
2023/06/27 08:16:36;;;;;;;;;7.33;4.33;;;;;22.64;57.74;101852.31;5050427;28;46300;-79
2023/06/27 08:19:01;;;;;;;;;6.33;5.33;;;;;22.68;56.08;101854.75;5056802;28;45416;-78
2023/06/27 08:21:27;;;;;;;;;5.00;4.33;;;;;22.72;57.01;101867.03;5056745;28;45340;-79
2023/06/27 08:23:52;;;;;;;;;5.67;4.33;;;;;22.75;57.80;101868.69;5057005;28;45415;-77
2023/06/27 08:26:18;;;;;;;;;7.33;5.00;;;;;22.75;56.31;101866.00;5056743;28;45381;-77
2023/06/27 08:28:44;;;;;;;;;4.33;3.00;;;;;22.73;56.17;101849.13;5056720;28;45159;-79
2023/06/27 08:31:11;;;;;;;;;5.00;4.00;;;;;22.84;56.06;101853.88;5056995;28;45301;-78
2023/06/27 08:33:36;;;;;;;;;7.33;5.33;;;;;22.89;55.19;101844.63;5057057;28;45321;-79
2023/06/27 08:36:02;;;;;;;;;6.33;4.00;;;;;22.99;55.02;101836.91;5059883;28;45403;-79
2023/06/27 08:38:27;;;;;;;;;5.00;4.67;;;;;23.29;54.53;101844.13;5060388;28;45341;-79
2023/06/27 08:40:54;;;;;;;;;5.00;5.00;;;;;23.51;54.02;101842.88;5060116;28;45344;-79
2023/06/27 08:43:20;;;;;;;;;3.00;2.00;;;;;23.60;52.57;101844.97;5060530;28;45493;-79
2023/06/27 08:45:48;;;;;;;;;4.67;2.00;;;;;23.75;52.55;101848.59;5059790;28;46308;-80
2023/06/27 08:48:15;;;;;;;;;7.67;6.00;;;;;23.84;50.81;101842.63;5060091;28;45329;-80
2023/06/27 08:50:42;;;;;;;;;10.67;10.00;;;;;23.96;50.57;101841.94;5059991;28;45262;-79
2023/06/27 08:53:12;;;;;;;;;4.33;2.00;;;;;24.12;51.32;101841.84;5060352;28;45355;-80
2023/06/27 08:56:03;;;;;;;;;3.00;3.00;;;;;24.24;51.56;101833.91;5059936;28;45441;-79
2023/06/27 08:58:34;;;;;;;;;3.00;2.33;;;;;24.36;49.31;101835.84;5059639;28;45402;-79
2023/06/27 09:01:00;;;;;;;;;2.00;1.67;;;;;24.34;48.31;101837.78;5059689;28;45167;-80
2023/06/27 09:03:26;;;;;;;;;2.67;1.00;;;;;24.39;48.46;101843.72;5059911;28;45422;-79
2023/06/27 09:05:53;;;;;;;;;1.67;1.67;;;;;24.36;47.68;101845.75;5059105;28;46452;-80
2023/06/27 09:08:19;;;;;;;;;1.00;1.00;;;;;24.34;46.54;101852.09;5059788;28;45569;-78
2023/06/27 09:10:44;;;;;;;;;1.00;1.00;;;;;24.39;46.82;101859.03;5059679;28;45478;-80
2023/06/27 09:13:10;;;;;;;;;2.00;1.00;;;;;24.42;47.20;101865.06;5059904;28;45288;-79
2023/06/27 09:15:36;;;;;;;;;3.00;3.00;;;;;24.45;47.04;101858.63;5059369;28;45335;-80
2023/06/27 09:18:01;;;;;;;;;1.00;1.00;;;;;24.54;47.02;101860.72;5059539;28;45404;-79
2023/06/27 09:20:27;;;;;;;;;3.67;1.33;;;;;25.46;44.12;101858.34;5059633;28;45316;-79
2023/06/27 09:22:55;;;;;;;;;4.33;4.00;;;;;26.03;41.94;101849.91;5059390;28;45316;-79
2023/06/27 09:25:24;;;;;;;;;4.33;2.00;;;;;26.09;41.98;101845.91;5059887;28;45580;-77
2023/06/27 09:27:51;;;;;;;;;3.67;2.00;;;;;26.90;40.74;101855.34;5059355;28;45435;-77
2023/06/27 09:30:16;;;;;;;;;1.00;1.00;;;;;28.34;38.43;101866.00;5059412;28;45319;-78
2023/06/27 09:32:51;;;;;;;;;4.00;4.00;;;;;30.50;39.11;101849.59;5059529;28;45395;-79
2023/06/27 09:35:17;;;;;;;;;5.00;5.00;;;;;32.30;37.22;101834.56;5059083;28;46584;-79
2023/06/27 09:37:43;;;;;;;;;0.00;0.00;;;;;34.08;32.64;101838.34;5059024;28;45321;-78
2023/06/27 09:40:20;;;;;;;;;2.67;2.00;;;;;35.71;32.16;101845.16;5059063;28;45401;-79
2023/06/27 09:42:52;;;;;;;;;1.33;1.33;;;;;36.93;28.00;101849.44;5059286;28;45437;-79
2023/06/27 09:45:19;;;;;;;;;3.33;0.33;;;;;37.75;27.83;101848.75;5058559;28;45527;-80
2023/06/27 09:47:47;;;;;;;;;1.00;1.00;;;;;38.44;27.82;101855.84;5058860;28;45159;-78
2023/06/27 09:50:12;;;;;;;;;1.67;1.67;;;;;39.21;25.05;101848.00;5058978;28;45226;-78
2023/06/27 09:52:38;;;;;;;;;1.67;1.33;;;;;40.06;26.03;101836.09;5058138;28;45406;-79
2023/06/27 09:55:04;;;;;;;;;3.00;2.67;;;;;40.86;23.82;101831.69;5058811;28;45584;-79
2023/06/27 09:57:30;;;;;;;;;5.00;3.67;;;;;41.62;22.79;101846.16;5056949;28;45265;-77
2023/06/27 09:59:58;;;;;;;;;0.00;0.00;;;;;42.05;21.98;101836.50;5058888;28;45316;-78
2023/06/27 10:02:30;;;;;;;;;5.67;5.67;;;;;42.49;21.38;101839.50;5059153;28;45242;-79
2023/06/27 10:04:55;;;;;;;;;2.33;2.33;;;;;42.89;22.36;101839.25;5058581;28;46433;-78
2023/06/27 10:07:20;;;;;;;;;4.67;4.67;;;;;43.18;22.90;101835.00;5043636;28;45519;-79
2023/06/27 10:09:46;;;;;;;;;3.00;3.00;;;;;43.50;19.91;101832.19;5054399;28;45388;-79
2023/06/27 10:12:14;;;;;;;;;4.33;2.00;;;;;43.48;21.50;101828.75;5049600;28;45340;-79
2023/06/27 10:14:41;;;;;;;;;1.67;1.00;;;;;43.79;20.54;101838.03;5038340;28;46295;-79
2023/06/27 10:17:07;;;;;;;;;1.00;1.00;;;;;44.21;20.81;101840.97;5038358;28;45448;-79
2023/06/27 10:19:35;;;;;;;;;1.00;1.00;;;;;44.67;19.57;101836.72;5058112;28;45363;-79
2023/06/27 10:22:01;;;;;;;;;2.00;0.50;;;;;44.53;19.78;101843.53;5056619;28;45285;-79
2023/06/27 10:24:29;;;;;;;;;0.00;0.00;;;;;44.58;20.87;101837.28;5056366;28;46444;-79
2023/06/27 10:26:57;;;;;;;;;1.25;0.00;;;;;44.27;19.53;101842.84;5043744;28;45710;-79
2023/06/27 10:29:23;;;;;;;;;2.25;2.25;;;;;43.05;21.39;101835.97;5048189;28;45537;-77
2023/06/27 10:31:50;;;;;;;;;1.00;1.00;;;;;41.59;21.48;101843.84;5058323;28;45394;-76
2023/06/27 10:34:20;;;;;;;;;3.00;2.00;;;;;40.12;22.79;101843.56;5058249;28;46422;-76
2023/06/27 10:36:54;;;;;;;;;2.00;1.00;;;;;38.59;23.74;101841.19;5057575;28;45290;-77
2023/06/27 10:39:29;;;;;;;;;1.67;1.67;;;;;37.67;24.30;101837.81;5044451;28;45211;-79
2023/06/27 10:42:04;;;;;;;;;1.33;0.67;;;;;37.85;23.95;101842.13;5047270;28;45222;-76
2023/06/27 10:44:34;;;;;;;;;1.00;0.00;;;;;38.58;23.08;101821.06;5054435;28;47572;-79
2023/06/27 10:47:15;;;;;;;;;1.33;1.33;;;;;39.45;23.76;101821.91;5068110;28;45453;-77
2023/06/27 10:49:40;;;;;;;;;1.00;1.00;;;;;39.76;22.13;101817.03;5037915;28;45252;-79
2023/06/27 10:52:10;;;;;;;;;0.67;0.67;;;;;40.06;21.69;101830.56;5040751;28;45119;-79
2023/06/27 10:54:40;;;;;;;;;1.00;1.00;;;;;40.31;22.19;101817.09;5056012;28;46664;-77
2023/06/27 10:57:06;;;;;;;;;1.00;1.00;;;;;40.35;22.61;101827.50;5050122;28;45494;-76
2023/06/27 10:59:33;;;;;;;;;0.00;0.00;;;;;40.34;20.55;101831.31;5037976;28;45225;-78
2023/06/27 11:02:02;;;;;;;;;3.00;1.00;;;;;40.15;21.01;101830.19;5037754;28;45544;-79
2023/06/27 11:04:40;;;;;;;;;0.33;0.33;;;;;39.82;22.07;101821.72;5041253;28;46323;-79
2023/06/27 11:07:12;;;;;;;;;3.00;2.33;;;;;39.18;21.05;101816.19;5054737;28;45415;-78
2023/06/27 11:09:39;;;;;;;;;0.00;0.00;;;;;38.42;21.70;101810.31;5055837;28;45445;-77
2023/06/27 11:12:08;;;;;;;;;0.00;0.00;;;;;37.62;22.31;101804.56;5056109;28;45459;-76
2023/06/27 11:14:35;;;;;;;;;2.67;1.00;;;;;36.54;23.77;101810.06;5056419;28;47148;-76
2023/06/27 11:17:03;;;;;;;;;0.00;0.00;;;;;35.64;23.75;101815.88;5057243;28;45346;-78
2023/06/27 11:19:30;;;;;;;;;0.67;0.33;;;;;34.81;24.41;101813.16;5056971;28;45301;-78
2023/06/27 11:21:57;;;;;;;;;0.67;0.67;;;;;34.05;24.56;101808.63;5055810;28;45376;-76